sensor_id;sensor_type;location;lat;lon;timestamp;P1;durP1;ratioP1;P2;durP2;ratioP2
22814;SDS011;11574;51.058;13.712;2023-02-15T00:01:06;58.97;;;25.43;;
22814;SDS011;11574;51.058;13.712;2023-02-15T00:06:10;63.83;;;25.03;;
22814;SDS011;11574;51.058;13.712;2023-02-15T00:11:13;61.47;;;26.27;;
22814;SDS011;11574;51.058;13.712;2023-02-15T00:16:16;61.23;;;25.10;;
22814;SDS011;11574;51.058;13.712;2023-02-15T00:21:19;58.33;;;25.80;;
22814;SDS011;11574;51.058;13.712;2023-02-15T00:26:21;65.10;;;27.83;;
22814;SDS011;11574;51.058;13.712;2023-02-15T00:31:24;57.17;;;23.93;;
22814;SDS011;11574;51.058;13.712;2023-02-15T00:36:27;58.37;;;23.47;;
22814;SDS011;11574;51.058;13.712;2023-02-15T00:41:29;60.87;;;23.30;;
22814;SDS011;11574;51.058;13.712;2023-02-15T00:46:31;60.27;;;23.70;;
22814;SDS011;11574;51.058;13.712;2023-02-15T00:51:35;56.50;;;23.03;;
22814;SDS011;11574;51.058;13.712;2023-02-15T00:56:37;57.90;;;23.57;;
22814;SDS011;11574;51.058;13.712;2023-02-15T01:01:40;55.10;;;22.87;;
22814;SDS011;11574;51.058;13.712;2023-02-15T01:06:43;52.40;;;23.33;;
22814;SDS011;11574;51.058;13.712;2023-02-15T01:11:45;51.27;;;22.33;;
22814;SDS011;11574;51.058;13.712;2023-02-15T01:16:47;55.60;;;22.53;;
22814;SDS011;11574;51.058;13.712;2023-02-15T01:21:51;55.37;;;22.30;;
22814;SDS011;11574;51.058;13.712;2023-02-15T01:26:53;53.03;;;21.77;;
22814;SDS011;11574;51.058;13.712;2023-02-15T01:31:55;52.73;;;21.03;;
22814;SDS011;11574;51.058;13.712;2023-02-15T01:36:59;48.97;;;21.23;;
22814;SDS011;11574;51.058;13.712;2023-02-15T01:42:01;52.30;;;22.77;;
22814;SDS011;11574;51.058;13.712;2023-02-15T01:47:03;53.70;;;22.37;;
22814;SDS011;11574;51.058;13.712;2023-02-15T01:52:07;56.80;;;21.57;;
22814;SDS011;11574;51.058;13.712;2023-02-15T01:57:10;57.20;;;21.77;;
22814;SDS011;11574;51.058;13.712;2023-02-15T02:02:14;47.70;;;20.77;;
22814;SDS011;11574;51.058;13.712;2023-02-15T02:07:22;57.67;;;22.33;;
22814;SDS011;11574;51.058;13.712;2023-02-15T02:12:25;54.07;;;21.60;;
22814;SDS011;11574;51.058;13.712;2023-02-15T02:17:42;52.67;;;20.77;;
22814;SDS011;11574;51.058;13.712;2023-02-15T02:22:57;53.67;;;21.27;;
22814;SDS011;11574;51.058;13.712;2023-02-15T02:28:07;51.60;;;20.63;;
22814;SDS011;11574;51.058;13.712;2023-02-15T02:33:35;57.83;;;21.00;;
22814;SDS011;11574;51.058;13.712;2023-02-15T02:38:42;54.47;;;22.57;;
22814;SDS011;11574;51.058;13.712;2023-02-15T02:43:47;52.07;;;22.20;;
22814;SDS011;11574;51.058;13.712;2023-02-15T02:48:51;53.33;;;20.87;;
22814;SDS011;11574;51.058;13.712;2023-02-15T02:53:55;53.83;;;21.00;;
22814;SDS011;11574;51.058;13.712;2023-02-15T02:58:59;47.93;;;19.97;;
22814;SDS011;11574;51.058;13.712;2023-02-15T03:04:04;43.43;;;18.50;;
22814;SDS011;11574;51.058;13.712;2023-02-15T03:09:08;52.83;;;19.63;;
22814;SDS011;11574;51.058;13.712;2023-02-15T03:14:21;43.57;;;19.10;;
22814;SDS011;11574;51.058;13.712;2023-02-15T03:19:25;47.97;;;19.50;;
22814;SDS011;11574;51.058;13.712;2023-02-15T03:24:29;46.40;;;18.90;;
22814;SDS011;11574;51.058;13.712;2023-02-15T03:29:33;43.93;;;18.90;;
22814;SDS011;11574;51.058;13.712;2023-02-15T03:34:38;43.60;;;17.87;;
22814;SDS011;11574;51.058;13.712;2023-02-15T03:39:42;44.83;;;17.43;;
22814;SDS011;11574;51.058;13.712;2023-02-15T03:44:49;45.43;;;19.13;;
22814;SDS011;11574;51.058;13.712;2023-02-15T03:49:54;43.57;;;17.53;;
22814;SDS011;11574;51.058;13.712;2023-02-15T03:54:58;39.87;;;16.67;;
22814;SDS011;11574;51.058;13.712;2023-02-15T04:00:01;45.30;;;17.47;;
22814;SDS011;11574;51.058;13.712;2023-02-15T04:05:23;42.57;;;16.57;;
22814;SDS011;11574;51.058;13.712;2023-02-15T04:10:25;32.83;;;15.40;;
22814;SDS011;11574;51.058;13.712;2023-02-15T04:15:45;35.13;;;14.63;;
22814;SDS011;11574;51.058;13.712;2023-02-15T04:21:07;36.30;;;14.97;;
22814;SDS011;11574;51.058;13.712;2023-02-15T04:26:27;35.27;;;15.57;;
22814;SDS011;11574;51.058;13.712;2023-02-15T04:31:29;32.13;;;14.60;;
22814;SDS011;11574;51.058;13.712;2023-02-15T04:36:32;31.97;;;14.43;;
22814;SDS011;11574;51.058;13.712;2023-02-15T04:41:35;36.07;;;15.17;;
22814;SDS011;11574;51.058;13.712;2023-02-15T04:46:37;37.60;;;15.17;;
22814;SDS011;11574;51.058;13.712;2023-02-15T04:51:40;38.60;;;15.07;;
22814;SDS011;11574;51.058;13.712;2023-02-15T04:56:43;34.97;;;15.53;;
22814;SDS011;11574;51.058;13.712;2023-02-15T05:01:45;37.57;;;16.37;;
22814;SDS011;11574;51.058;13.712;2023-02-15T05:06:48;37.20;;;14.90;;
22814;SDS011;11574;51.058;13.712;2023-02-15T05:11:50;38.43;;;14.70;;
22814;SDS011;11574;51.058;13.712;2023-02-15T05:16:53;34.60;;;15.23;;
22814;SDS011;11574;51.058;13.712;2023-02-15T05:21:56;35.37;;;15.40;;
22814;SDS011;11574;51.058;13.712;2023-02-15T05:26:59;38.27;;;15.67;;
22814;SDS011;11574;51.058;13.712;2023-02-15T05:32:18;36.87;;;14.47;;
22814;SDS011;11574;51.058;13.712;2023-02-15T05:37:22;31.77;;;14.33;;
22814;SDS011;11574;51.058;13.712;2023-02-15T05:42:24;37.07;;;14.33;;
22814;SDS011;11574;51.058;13.712;2023-02-15T05:47:27;38.73;;;14.37;;
22814;SDS011;11574;51.058;13.712;2023-02-15T05:52:30;37.20;;;14.60;;
22814;SDS011;11574;51.058;13.712;2023-02-15T05:57:32;35.97;;;13.93;;
22814;SDS011;11574;51.058;13.712;2023-02-15T06:02:35;28.87;;;12.83;;
22814;SDS011;11574;51.058;13.712;2023-02-15T06:07:38;34.07;;;13.93;;
22814;SDS011;11574;51.058;13.712;2023-02-15T06:12:43;32.80;;;13.90;;
22814;SDS011;11574;51.058;13.712;2023-02-15T06:17:45;27.70;;;12.77;;
22814;SDS011;11574;51.058;13.712;2023-02-15T06:22:49;27.03;;;12.37;;
22814;SDS011;11574;51.058;13.712;2023-02-15T06:27:51;31.20;;;13.87;;
22814;SDS011;11574;51.058;13.712;2023-02-15T06:32:53;29.00;;;12.90;;
22814;SDS011;11574;51.058;13.712;2023-02-15T06:37:57;28.20;;;11.07;;
22814;SDS011;11574;51.058;13.712;2023-02-15T06:42:59;30.40;;;13.10;;
22814;SDS011;11574;51.058;13.712;2023-02-15T06:48:01;29.20;;;12.43;;
22814;SDS011;11574;51.058;13.712;2023-02-15T06:53:08;26.23;;;12.33;;
22814;SDS011;11574;51.058;13.712;2023-02-15T06:58:10;30.07;;;12.60;;
22814;SDS011;11574;51.058;13.712;2023-02-15T07:03:13;27.87;;;12.20;;
22814;SDS011;11574;51.058;13.712;2023-02-15T07:08:17;23.63;;;11.27;;
22814;SDS011;11574;51.058;13.712;2023-02-15T07:13:20;24.10;;;11.40;;
22814;SDS011;11574;51.058;13.712;2023-02-15T07:18:22;28.43;;;12.07;;
22814;SDS011;11574;51.058;13.712;2023-02-15T07:23:26;26.67;;;11.97;;
22814;SDS011;11574;51.058;13.712;2023-02-15T07:28:28;24.07;;;11.57;;
22814;SDS011;11574;51.058;13.712;2023-02-15T07:33:30;27.03;;;11.23;;
22814;SDS011;11574;51.058;13.712;2023-02-15T07:38:34;22.83;;;10.33;;
22814;SDS011;11574;51.058;13.712;2023-02-15T07:43:38;26.60;;;10.87;;
22814;SDS011;11574;51.058;13.712;2023-02-15T07:48:41;23.30;;;11.10;;
22814;SDS011;11574;51.058;13.712;2023-02-15T07:53:45;23.57;;;10.70;;
22814;SDS011;11574;51.058;13.712;2023-02-15T07:58:47;19.20;;;9.60;;
22814;SDS011;11574;51.058;13.712;2023-02-15T08:03:52;19.63;;;9.70;;
22814;SDS011;11574;51.058;13.712;2023-02-15T08:08:56;16.70;;;8.73;;
22814;SDS011;11574;51.058;13.712;2023-02-15T08:13:59;15.97;;;8.77;;
22814;SDS011;11574;51.058;13.712;2023-02-15T08:19:03;16.73;;;8.23;;
22814;SDS011;11574;51.058;13.712;2023-02-15T08:24:07;15.17;;;8.03;;
22814;SDS011;11574;51.058;13.712;2023-02-15T08:29:10;14.90;;;8.00;;
22814;SDS011;11574;51.058;13.712;2023-02-15T08:34:13;13.70;;;8.20;;
22814;SDS011;11574;51.058;13.712;2023-02-15T08:39:17;15.93;;;8.67;;
22814;SDS011;11574;51.058;13.712;2023-02-15T08:44:19;14.00;;;8.63;;
22814;SDS011;11574;51.058;13.712;2023-02-15T08:49:22;16.63;;;7.70;;
22814;SDS011;11574;51.058;13.712;2023-02-15T08:54:26;13.43;;;7.77;;
22814;SDS011;11574;51.058;13.712;2023-02-15T08:59:28;15.17;;;8.67;;
22814;SDS011;11574;51.058;13.712;2023-02-15T09:04:30;11.80;;;7.20;;
22814;SDS011;11574;51.058;13.712;2023-02-15T09:09:34;12.40;;;7.50;;
22814;SDS011;11574;51.058;13.712;2023-02-15T09:14:36;13.07;;;7.87;;
22814;SDS011;11574;51.058;13.712;2023-02-15T09:19:39;15.30;;;7.93;;
22814;SDS011;11574;51.058;13.712;2023-02-15T09:24:42;15.40;;;8.30;;
22814;SDS011;11574;51.058;13.712;2023-02-15T09:29:44;12.53;;;7.23;;
22814;SDS011;11574;51.058;13.712;2023-02-15T09:34:47;12.67;;;7.47;;
22814;SDS011;11574;51.058;13.712;2023-02-15T09:39:50;13.80;;;7.77;;
22814;SDS011;11574;51.058;13.712;2023-02-15T09:44:57;14.90;;;8.40;;
22814;SDS011;11574;51.058;13.712;2023-02-15T09:50:01;16.70;;;8.97;;
22814;SDS011;11574;51.058;13.712;2023-02-15T09:55:13;14.80;;;8.27;;
22814;SDS011;11574;51.058;13.712;2023-02-15T10:00:19;16.30;;;8.07;;
22814;SDS011;11574;51.058;13.712;2023-02-15T10:05:25;14.73;;;8.87;;
22814;SDS011;11574;51.058;13.712;2023-02-15T10:10:36;16.60;;;9.03;;
22814;SDS011;11574;51.058;13.712;2023-02-15T10:15:45;16.30;;;9.43;;
22814;SDS011;11574;51.058;13.712;2023-02-15T10:20:55;18.17;;;10.23;;
22814;SDS011;11574;51.058;13.712;2023-02-15T10:26:00;16.53;;;10.17;;
22814;SDS011;11574;51.058;13.712;2023-02-15T10:31:07;16.30;;;9.90;;
22814;SDS011;11574;51.058;13.712;2023-02-15T10:36:18;22.03;;;10.97;;
22814;SDS011;11574;51.058;13.712;2023-02-15T10:41:30;22.80;;;12.20;;
22814;SDS011;11574;51.058;13.712;2023-02-15T10:46:42;20.70;;;11.40;;
22814;SDS011;11574;51.058;13.712;2023-02-15T10:51:52;20.07;;;11.70;;
22814;SDS011;11574;51.058;13.712;2023-02-15T10:57:01;25.17;;;10.60;;
22814;SDS011;11574;51.058;13.712;2023-02-15T11:02:07;18.10;;;10.40;;
22814;SDS011;11574;51.058;13.712;2023-02-15T11:07:14;22.40;;;11.17;;
22814;SDS011;11574;51.058;13.712;2023-02-15T11:12:18;19.40;;;10.43;;
22814;SDS011;11574;51.058;13.712;2023-02-15T11:17:24;18.57;;;10.73;;
22814;SDS011;11574;51.058;13.712;2023-02-15T11:22:27;20.83;;;10.13;;
22814;SDS011;11574;51.058;13.712;2023-02-15T11:27:31;18.83;;;10.20;;
22814;SDS011;11574;51.058;13.712;2023-02-15T11:32:34;18.73;;;9.03;;
22814;SDS011;11574;51.058;13.712;2023-02-15T11:37:38;20.77;;;10.60;;
22814;SDS011;11574;51.058;13.712;2023-02-15T11:42:43;17.67;;;9.73;;
22814;SDS011;11574;51.058;13.712;2023-02-15T11:47:47;17.03;;;9.10;;
22814;SDS011;11574;51.058;13.712;2023-02-15T11:52:50;17.83;;;9.83;;
22814;SDS011;11574;51.058;13.712;2023-02-15T11:57:54;18.77;;;9.57;;
22814;SDS011;11574;51.058;13.712;2023-02-15T12:02:58;18.30;;;9.67;;
22814;SDS011;11574;51.058;13.712;2023-02-15T12:08:01;19.07;;;9.17;;
22814;SDS011;11574;51.058;13.712;2023-02-15T12:13:09;19.83;;;9.73;;
22814;SDS011;11574;51.058;13.712;2023-02-15T12:18:17;17.00;;;9.63;;
22814;SDS011;11574;51.058;13.712;2023-02-15T12:23:21;22.07;;;10.37;;
22814;SDS011;11574;51.058;13.712;2023-02-15T12:28:26;17.77;;;9.57;;
22814;SDS011;11574;51.058;13.712;2023-02-15T12:33:29;15.70;;;9.03;;
22814;SDS011;11574;51.058;13.712;2023-02-15T12:38:31;23.67;;;10.27;;
22814;SDS011;11574;51.058;13.712;2023-02-15T12:43:36;16.83;;;9.47;;
22814;SDS011;11574;51.058;13.712;2023-02-15T12:48:39;17.57;;;9.47;;
22814;SDS011;11574;51.058;13.712;2023-02-15T12:53:41;19.07;;;9.30;;
22814;SDS011;11574;51.058;13.712;2023-02-15T12:58:45;20.57;;;11.17;;
22814;SDS011;11574;51.058;13.712;2023-02-15T13:03:57;19.73;;;9.70;;
22814;SDS011;11574;51.058;13.712;2023-02-15T13:09:05;22.07;;;11.27;;
22814;SDS011;11574;51.058;13.712;2023-02-15T13:14:17;19.93;;;10.43;;
22814;SDS011;11574;51.058;13.712;2023-02-15T13:19:20;21.20;;;11.23;;
22814;SDS011;11574;51.058;13.712;2023-02-15T13:24:25;20.37;;;10.10;;
22814;SDS011;11574;51.058;13.712;2023-02-15T13:29:33;21.83;;;11.27;;
22814;SDS011;11574;51.058;13.712;2023-02-15T13:34:37;20.53;;;11.20;;
22814;SDS011;11574;51.058;13.712;2023-02-15T13:39:41;22.87;;;11.97;;
22814;SDS011;11574;51.058;13.712;2023-02-15T13:44:51;22.53;;;11.50;;
22814;SDS011;11574;51.058;13.712;2023-02-15T13:50:03;24.45;;;14.48;;
22814;SDS011;11574;51.058;13.712;2023-02-15T13:55:21;22.67;;;12.07;;
22814;SDS011;11574;51.058;13.712;2023-02-15T14:00:29;20.57;;;10.73;;
22814;SDS011;11574;51.058;13.712;2023-02-15T14:05:35;19.60;;;11.00;;
22814;SDS011;11574;51.058;13.712;2023-02-15T14:10:43;22.30;;;11.73;;
22814;SDS011;11574;51.058;13.712;2023-02-15T14:15:48;22.57;;;11.80;;
22814;SDS011;11574;51.058;13.712;2023-02-15T14:20:56;24.37;;;12.13;;
22814;SDS011;11574;51.058;13.712;2023-02-15T14:26:00;27.83;;;12.20;;
22814;SDS011;11574;51.058;13.712;2023-02-15T14:31:06;26.90;;;12.23;;
22814;SDS011;11574;51.058;13.712;2023-02-15T14:36:11;24.40;;;13.47;;
22814;SDS011;11574;51.058;13.712;2023-02-15T14:41:15;24.43;;;13.07;;
22814;SDS011;11574;51.058;13.712;2023-02-15T14:46:24;28.87;;;13.33;;
22814;SDS011;11574;51.058;13.712;2023-02-15T15:02:17;28.43;;;15.57;;
22814;SDS011;11574;51.058;13.712;2023-02-15T15:07:21;28.70;;;14.87;;
22814;SDS011;11574;51.058;13.712;2023-02-15T15:12:37;30.10;;;14.87;;
22814;SDS011;11574;51.058;13.712;2023-02-15T15:17:58;33.70;;;15.50;;
22814;SDS011;11574;51.058;13.712;2023-02-15T15:33:57;31.57;;;17.27;;
22814;SDS011;11574;51.058;13.712;2023-02-15T15:39:03;35.03;;;16.53;;
22814;SDS011;11574;51.058;13.712;2023-02-15T15:49:32;32.10;;;15.53;;
22814;SDS011;11574;51.058;13.712;2023-02-15T15:54:34;33.67;;;15.40;;
22814;SDS011;11574;51.058;13.712;2023-02-15T15:59:43;34.97;;;16.37;;
22814;SDS011;11574;51.058;13.712;2023-02-15T16:04:47;32.20;;;16.70;;
22814;SDS011;11574;51.058;13.712;2023-02-15T16:09:56;38.10;;;16.77;;
22814;SDS011;11574;51.058;13.712;2023-02-15T16:15:00;33.83;;;16.63;;
22814;SDS011;11574;51.058;13.712;2023-02-15T16:20:06;40.30;;;16.97;;
22814;SDS011;11574;51.058;13.712;2023-02-15T16:25:21;33.20;;;16.83;;
22814;SDS011;11574;51.058;13.712;2023-02-15T16:30:26;35.50;;;16.87;;
22814;SDS011;11574;51.058;13.712;2023-02-15T16:35:30;36.10;;;15.63;;
22814;SDS011;11574;51.058;13.712;2023-02-15T16:40:38;40.03;;;17.03;;
22814;SDS011;11574;51.058;13.712;2023-02-15T16:45:42;34.73;;;16.07;;
22814;SDS011;11574;51.058;13.712;2023-02-15T16:50:50;33.57;;;16.77;;
22814;SDS011;11574;51.058;13.712;2023-02-15T16:55:54;38.30;;;17.03;;
22814;SDS011;11574;51.058;13.712;2023-02-15T17:01:01;33.43;;;17.03;;
22814;SDS011;11574;51.058;13.712;2023-02-15T17:06:05;33.13;;;16.03;;
22814;SDS011;11574;51.058;13.712;2023-02-15T17:11:20;41.67;;;18.20;;
22814;SDS011;11574;51.058;13.712;2023-02-15T17:16:25;44.20;;;17.97;;
22814;SDS011;11574;51.058;13.712;2023-02-15T17:21:31;36.27;;;17.63;;
22814;SDS011;11574;51.058;13.712;2023-02-15T17:26:35;41.83;;;18.33;;
22814;SDS011;11574;51.058;13.712;2023-02-15T17:31:38;39.87;;;18.23;;
22814;SDS011;11574;51.058;13.712;2023-02-15T17:36:48;38.93;;;17.60;;
22814;SDS011;11574;51.058;13.712;2023-02-15T17:41:58;43.20;;;17.80;;
22814;SDS011;11574;51.058;13.712;2023-02-15T17:47:00;42.03;;;18.60;;
22814;SDS011;11574;51.058;13.712;2023-02-15T17:52:04;46.47;;;18.87;;
22814;SDS011;11574;51.058;13.712;2023-02-15T17:57:08;41.20;;;18.20;;
22814;SDS011;11574;51.058;13.712;2023-02-15T18:02:13;47.23;;;20.00;;
22814;SDS011;11574;51.058;13.712;2023-02-15T18:07:34;42.20;;;18.60;;
22814;SDS011;11574;51.058;13.712;2023-02-15T18:12:54;46.27;;;19.37;;
22814;SDS011;11574;51.058;13.712;2023-02-15T18:17:56;50.80;;;20.13;;
22814;SDS011;11574;51.058;13.712;2023-02-15T18:22:59;46.23;;;19.97;;
22814;SDS011;11574;51.058;13.712;2023-02-15T18:28:02;42.47;;;18.70;;
22814;SDS011;11574;51.058;13.712;2023-02-15T18:33:05;46.90;;;19.67;;
22814;SDS011;11574;51.058;13.712;2023-02-15T18:38:08;38.70;;;17.80;;
22814;SDS011;11574;51.058;13.712;2023-02-15T18:43:12;45.37;;;19.83;;
22814;SDS011;11574;51.058;13.712;2023-02-15T18:48:14;48.33;;;20.40;;
22814;SDS011;11574;51.058;13.712;2023-02-15T18:53:20;45.00;;;18.70;;
22814;SDS011;11574;51.058;13.712;2023-02-15T18:58:23;49.43;;;19.80;;
22814;SDS011;11574;51.058;13.712;2023-02-15T19:03:27;49.60;;;21.17;;
22814;SDS011;11574;51.058;13.712;2023-02-15T19:08:30;47.13;;;19.60;;
22814;SDS011;11574;51.058;13.712;2023-02-15T19:13:32;44.63;;;19.10;;
22814;SDS011;11574;51.058;13.712;2023-02-15T19:18:35;44.80;;;18.60;;
22814;SDS011;11574;51.058;13.712;2023-02-15T19:23:39;48.23;;;19.77;;
22814;SDS011;11574;51.058;13.712;2023-02-15T19:28:41;50.60;;;21.47;;
22814;SDS011;11574;51.058;13.712;2023-02-15T19:33:44;46.97;;;19.10;;
22814;SDS011;11574;51.058;13.712;2023-02-15T19:38:48;46.57;;;20.27;;
22814;SDS011;11574;51.058;13.712;2023-02-15T19:43:53;44.77;;;19.10;;
22814;SDS011;11574;51.058;13.712;2023-02-15T19:48:56;46.87;;;20.50;;
22814;SDS011;11574;51.058;13.712;2023-02-15T19:54:00;48.80;;;19.73;;
22814;SDS011;11574;51.058;13.712;2023-02-15T19:59:02;46.30;;;19.20;;
22814;SDS011;11574;51.058;13.712;2023-02-15T20:04:04;49.60;;;19.93;;
22814;SDS011;11574;51.058;13.712;2023-02-15T20:09:09;47.67;;;19.80;;
22814;SDS011;11574;51.058;13.712;2023-02-15T20:14:15;56.33;;;18.37;;
22814;SDS011;11574;51.058;13.712;2023-02-15T20:19:17;44.07;;;19.60;;
22814;SDS011;11574;51.058;13.712;2023-02-15T20:24:21;42.83;;;19.70;;
22814;SDS011;11574;51.058;13.712;2023-02-15T20:29:24;41.30;;;19.67;;
22814;SDS011;11574;51.058;13.712;2023-02-15T20:34:26;47.67;;;20.93;;
22814;SDS011;11574;51.058;13.712;2023-02-15T20:39:30;47.20;;;20.30;;
22814;SDS011;11574;51.058;13.712;2023-02-15T20:44:33;49.53;;;20.73;;
22814;SDS011;11574;51.058;13.712;2023-02-15T20:49:36;53.03;;;20.67;;
22814;SDS011;11574;51.058;13.712;2023-02-15T20:54:39;49.77;;;20.33;;
22814;SDS011;11574;51.058;13.712;2023-02-15T20:59:41;49.03;;;20.87;;
22814;SDS011;11574;51.058;13.712;2023-02-15T21:04:44;52.37;;;20.50;;
22814;SDS011;11574;51.058;13.712;2023-02-15T21:09:47;44.83;;;20.47;;
22814;SDS011;11574;51.058;13.712;2023-02-15T21:14:51;46.63;;;19.50;;
22814;SDS011;11574;51.058;13.712;2023-02-15T21:19:53;46.97;;;20.30;;
22814;SDS011;11574;51.058;13.712;2023-02-15T21:24:57;50.57;;;20.83;;
22814;SDS011;11574;51.058;13.712;2023-02-15T21:29:59;49.87;;;20.33;;
22814;SDS011;11574;51.058;13.712;2023-02-15T21:35:02;46.13;;;19.27;;
22814;SDS011;11574;51.058;13.712;2023-02-15T21:40:08;47.80;;;19.60;;
22814;SDS011;11574;51.058;13.712;2023-02-15T21:45:15;43.03;;;19.00;;
22814;SDS011;11574;51.058;13.712;2023-02-15T21:50:35;50.23;;;19.80;;
22814;SDS011;11574;51.058;13.712;2023-02-15T21:55:57;41.77;;;18.47;;
22814;SDS011;11574;51.058;13.712;2023-02-15T22:01:00;45.27;;;18.00;;
22814;SDS011;11574;51.058;13.712;2023-02-15T22:06:02;45.53;;;18.77;;
22814;SDS011;11574;51.058;13.712;2023-02-15T22:11:09;41.27;;;18.23;;
22814;SDS011;11574;51.058;13.712;2023-02-15T22:16:13;41.33;;;17.70;;
22814;SDS011;11574;51.058;13.712;2023-02-15T22:21:17;38.23;;;17.57;;
22814;SDS011;11574;51.058;13.712;2023-02-15T22:26:21;43.83;;;18.30;;
22814;SDS011;11574;51.058;13.712;2023-02-15T22:31:24;40.57;;;17.73;;
22814;SDS011;11574;51.058;13.712;2023-02-15T22:36:27;42.30;;;18.63;;
22814;SDS011;11574;51.058;13.712;2023-02-15T22:41:31;39.27;;;17.03;;
22814;SDS011;11574;51.058;13.712;2023-02-15T22:46:33;40.97;;;18.80;;
22814;SDS011;11574;51.058;13.712;2023-02-15T22:51:37;42.33;;;17.03;;
22814;SDS011;11574;51.058;13.712;2023-02-15T22:56:41;43.83;;;17.20;;
22814;SDS011;11574;51.058;13.712;2023-02-15T23:01:44;42.57;;;18.07;;
22814;SDS011;11574;51.058;13.712;2023-02-15T23:06:46;40.53;;;18.10;;
22814;SDS011;11574;51.058;13.712;2023-02-15T23:11:50;49.23;;;18.27;;
22814;SDS011;11574;51.058;13.712;2023-02-15T23:16:52;41.10;;;18.60;;
22814;SDS011;11574;51.058;13.712;2023-02-15T23:21:54;43.03;;;17.80;;
22814;SDS011;11574;51.058;13.712;2023-02-15T23:27:00;42.87;;;17.40;;
22814;SDS011;11574;51.058;13.712;2023-02-15T23:32:16;44.20;;;17.37;;
22814;SDS011;11574;51.058;13.712;2023-02-15T23:37:19;42.97;;;17.30;;
22814;SDS011;11574;51.058;13.712;2023-02-15T23:42:23;38.10;;;16.90;;
22814;SDS011;11574;51.058;13.712;2023-02-15T23:47:27;41.67;;;16.83;;
22814;SDS011;11574;51.058;13.712;2023-02-15T23:52:43;37.50;;;17.53;;
22814;SDS011;11574;51.058;13.712;2023-02-15T23:57:47;35.53;;;15.87;;
